메인 페이지
METAR-TAF:

METAR-TAF

공항 :

튀니스 카르타고 국제공항

튀니스, 튀니지

위도: 36-50N, 경도: 010-14E, 고도: 3m

현재 날씨관측

예보는 34분 전, 11:30시(UTC)에 발표되었습니다.
5kt북북서풍과 북동풍을 오가는
온도 25°C
습도 65%
기압 1020 hPa
시정 10km 이상
고도 2300ft 상공 구름 보통

METAR: DTTA 201130Z 01005KT 330V040 9999 SCT023 25/18 Q1020 NOSIG

시각: 13:04 (12:04 UTC)

예보

예보는 1 시간 4분 전, 11:00시(UTC)에 발표되었습니다.
예보 대상 시간: 20일 12시부터 21일 12시까지 (UTC)
여러 방향의 바람 3kt
시정 10km 이상
고도 2300ft 상공 구름 보통
확률 40% :
일시적
21일 03시부터 21일 07시까지 (UTC)
시정: 1500m
박무

TAF: DTTA 201100Z 2012/2112 VRB03KT 9999 SCT023 PROB40 TEMPO 2103/2107 1500 BR

4,000개 이상의 공항 관측 자료 및 예보 (METAR 및 TAF 보고).

지도상에서 검색 가능한 기상관측소가 노란 점과 빨간 점으로 표시되어 있습니다.

기상관측소 명을 보려면 표시 위로 마우스를 이동하세요.

날씨 관측과 예보를 보려면 클릭하세요.

지도 변경 : 확대하려면 엑스 표시가 있는 녹색 버튼, 축소하려면 빼기 표시가 있는 녹색 버튼, 다음 페이지의 지도를 보려면 녹색 화살표를 클릭하세요.


METAR-TAF: